Aviation Digital Data Service (ADDS)

Output produced by METARs form (1741 UTC 24 June 2019)
found at http://www.aviationweather.gov/metar/data/
 
METAR text: WBSB 241700Z 08001KT 9999 FEW014 BKN140 27/26 Q1011 NOSIG
Conditions at: WBSB (BRUNEI INTL AIRP, MY) observed 1700 UTC 24 June 2019
Temperature: 27.0°C (81°F)
Dewpoint: 26.0°C (79°F) [RH = 94%]
Pressure (altimeter): 29.85 inches Hg (1011.0 mb)
Winds: from the E (80 degrees) at 1 MPH (1 knots; 0.5 m/s)
Visibility: 6 or more miles (10+ km)
Ceiling: 14000 feet AGL
Clouds: few clouds at 1400 feet AGL
broken clouds at 14000 feet AGL
Weather: no significant weather observed at this time

METAR text: WBSB 241630Z 04001KT 9999 FEW014 BKN140 27/26 Q1011 NOSIG
Conditions at: WBSB (BRUNEI INTL AIRP, MY) observed 1630 UTC 24 June 2019
Temperature: 27.0°C (81°F)
Dewpoint: 26.0°C (79°F) [RH = 94%]
Pressure (altimeter): 29.85 inches Hg (1011.0 mb)
Winds: from the NE (40 degrees) at 1 MPH (1 knots; 0.5 m/s)
Visibility: 6 or more miles (10+ km)
Ceiling: 14000 feet AGL
Clouds: few clouds at 1400 feet AGL
broken clouds at 14000 feet AGL
Weather: no significant weather observed at this time

METAR text: WBSB 241600Z 01001KT 9999 FEW014 BKN140 27/25 Q1011 NOSIG
Conditions at: WBSB (BRUNEI INTL AIRP, MY) observed 1600 UTC 24 June 2019
Temperature: 27.0°C (81°F)
Dewpoint: 25.0°C (77°F) [RH = 89%]
Pressure (altimeter): 29.85 inches Hg (1011.0 mb)
Winds: from the N (10 degrees) at 1 MPH (1 knots; 0.5 m/s)
Visibility: 6 or more miles (10+ km)
Ceiling: 14000 feet AGL
Clouds: few clouds at 1400 feet AGL
broken clouds at 14000 feet AGL
Weather: no significant weather observed at this time

METAR text: WBSB 241530Z 08001KT 9999 FEW014 BKN140 27/25 Q1011 NOSIG
Conditions at: WBSB (BRUNEI INTL AIRP, MY) observed 1530 UTC 24 June 2019
Temperature: 27.0°C (81°F)
Dewpoint: 25.0°C (77°F) [RH = 89%]
Pressure (altimeter): 29.85 inches Hg (1011.0 mb)
Winds: from the E (80 degrees) at 1 MPH (1 knots; 0.5 m/s)
Visibility: 6 or more miles (10+ km)
Ceiling: 14000 feet AGL
Clouds: few clouds at 1400 feet AGL
broken clouds at 14000 feet AGL
Weather: no significant weather observed at this time

METAR text: WBSB 241500Z 06002KT 9999 FEW014 BKN140 27/26 Q1011 NOSIG
Conditions at: WBSB (BRUNEI INTL AIRP, MY) observed 1500 UTC 24 June 2019
Temperature: 27.0°C (81°F)
Dewpoint: 26.0°C (79°F) [RH = 94%]
Pressure (altimeter): 29.85 inches Hg (1011.0 mb)
Winds: from the ENE (60 degrees) at 2 MPH (2 knots; 1.0 m/s)
Visibility: 6 or more miles (10+ km)
Ceiling: 14000 feet AGL
Clouds: few clouds at 1400 feet AGL
broken clouds at 14000 feet AGL
Weather: no significant weather observed at this time

METAR text: WBSB 241430Z 06001KT 9999 FEW015 BKN140 27/26 Q1011 NOSIG
Conditions at: WBSB (BRUNEI INTL AIRP, MY) observed 1430 UTC 24 June 2019
Temperature: 27.0°C (81°F)
Dewpoint: 26.0°C (79°F) [RH = 94%]
Pressure (altimeter): 29.85 inches Hg (1011.0 mb)
Winds: from the ENE (60 degrees) at 1 MPH (1 knots; 0.5 m/s)
Visibility: 6 or more miles (10+ km)
Ceiling: 14000 feet AGL
Clouds: few clouds at 1500 feet AGL
broken clouds at 14000 feet AGL
Weather: no significant weather observed at this time

METAR text: WBSB 241400Z 06002KT 9999 FEW015 BKN140 28/26 Q1011 NOSIG
Conditions at: WBSB (BRUNEI INTL AIRP, MY) observed 1400 UTC 24 June 2019
Temperature: 28.0°C (82°F)
Dewpoint: 26.0°C (79°F) [RH = 89%]
Pressure (altimeter): 29.85 inches Hg (1011.0 mb)
Winds: from the ENE (60 degrees) at 2 MPH (2 knots; 1.0 m/s)
Visibility: 6 or more miles (10+ km)
Ceiling: 14000 feet AGL
Clouds: few clouds at 1500 feet AGL
broken clouds at 14000 feet AGL
Weather: no significant weather observed at this time

METAR text: WBSB 241330Z 05002KT 9999 FEW015 BKN140 28/26 Q1011 NOSIG
Conditions at: WBSB (BRUNEI INTL AIRP, MY) observed 1330 UTC 24 June 2019
Temperature: 28.0°C (82°F)
Dewpoint: 26.0°C (79°F) [RH = 89%]
Pressure (altimeter): 29.85 inches Hg (1011.0 mb)
Winds: from the NE (50 degrees) at 2 MPH (2 knots; 1.0 m/s)
Visibility: 6 or more miles (10+ km)
Ceiling: 14000 feet AGL
Clouds: few clouds at 1500 feet AGL
broken clouds at 14000 feet AGL
Weather: no significant weather observed at this time

METAR text: WBSB 241300Z 07001KT 9999 FEW015 BKN140 28/26 Q1011 NOSIG
Conditions at: WBSB (BRUNEI INTL AIRP, MY) observed 1300 UTC 24 June 2019
Temperature: 28.0°C (82°F)
Dewpoint: 26.0°C (79°F) [RH = 89%]
Pressure (altimeter): 29.85 inches Hg (1011.0 mb)
Winds: from the ENE (70 degrees) at 1 MPH (1 knots; 0.5 m/s)
Visibility: 6 or more miles (10+ km)
Ceiling: 14000 feet AGL
Clouds: few clouds at 1500 feet AGL
broken clouds at 14000 feet AGL
Weather: no significant weather observed at this time

METAR text: WBSB 241230Z 08001KT 9999 FEW015 BKN140 28/26 Q1011 NOSIG
Conditions at: WBSB (BRUNEI INTL AIRP, MY) observed 1230 UTC 24 June 2019
Temperature: 28.0°C (82°F)
Dewpoint: 26.0°C (79°F) [RH = 89%]
Pressure (altimeter): 29.85 inches Hg (1011.0 mb)
Winds: from the E (80 degrees) at 1 MPH (1 knots; 0.5 m/s)
Visibility: 6 or more miles (10+ km)
Ceiling: 14000 feet AGL
Clouds: few clouds at 1500 feet AGL
broken clouds at 14000 feet AGL
Weather: no significant weather observed at this time

METAR text: WBSB 241200Z 05002KT 9999 FEW015 BKN140 29/26 Q1010 NOSIG
Conditions at: WBSB (BRUNEI INTL AIRP, MY) observed 1200 UTC 24 June 2019
Temperature: 29.0°C (84°F)
Dewpoint: 26.0°C (79°F) [RH = 84%]
Pressure (altimeter): 29.82 inches Hg (1010.0 mb)
Winds: from the NE (50 degrees) at 2 MPH (2 knots; 1.0 m/s)
Visibility: 6 or more miles (10+ km)
Ceiling: 14000 feet AGL
Clouds: few clouds at 1500 feet AGL
broken clouds at 14000 feet AGL
Weather: no significant weather observed at this time

METAR text: WBSB 241130Z 02002KT 9999 FEW015 BKN140 29/25 Q1010 NOSIG
Conditions at: WBSB (BRUNEI INTL AIRP, MY) observed 1130 UTC 24 June 2019
Temperature: 29.0°C (84°F)
Dewpoint: 25.0°C (77°F) [RH = 79%]
Pressure (altimeter): 29.82 inches Hg (1010.0 mb)
Winds: from the NNE (20 degrees) at 2 MPH (2 knots; 1.0 m/s)
Visibility: 6 or more miles (10+ km)
Ceiling: 14000 feet AGL
Clouds: few clouds at 1500 feet AGL
broken clouds at 14000 feet AGL
Weather: no significant weather observed at this time

METAR text: WBSB 241100Z 35002KT 9999 FEW015 SCT140 BKN280 29/25 Q1010 NOSIG
Conditions at: WBSB (BRUNEI INTL AIRP, MY) observed 1100 UTC 24 June 2019
Temperature: 29.0°C (84°F)
Dewpoint: 25.0°C (77°F) [RH = 79%]
Pressure (altimeter): 29.82 inches Hg (1010.0 mb)
Winds: from the N (350 degrees) at 2 MPH (2 knots; 1.0 m/s)
Visibility: 6 or more miles (10+ km)
Ceiling: 28000 feet AGL
Clouds: few clouds at 1500 feet AGL
scattered clouds at 14000 feet AGL
broken clouds at 28000 feet AGL
Weather: no significant weather observed at this time

METAR text: WBSB 241030Z 32002KT 9999 FEW015 SCT140 BKN280 30/25 Q1009 NOSIG
Conditions at: WBSB (BRUNEI INTL AIRP, MY) observed 1030 UTC 24 June 2019
Temperature: 30.0°C (86°F)
Dewpoint: 25.0°C (77°F) [RH = 75%]
Pressure (altimeter): 29.79 inches Hg (1009.0 mb)
Winds: from the NW (320 degrees) at 2 MPH (2 knots; 1.0 m/s)
Visibility: 6 or more miles (10+ km)
Ceiling: 28000 feet AGL
Clouds: few clouds at 1500 feet AGL
scattered clouds at 14000 feet AGL
broken clouds at 28000 feet AGL
Weather: no significant weather observed at this time

METAR text: WBSB 241000Z 31003KT 9999 FEW015 BKN280 31/25 Q1009 NOSIG
Conditions at: WBSB (BRUNEI INTL AIRP, MY) observed 1000 UTC 24 June 2019
Temperature: 31.0°C (88°F)
Dewpoint: 25.0°C (77°F) [RH = 71%]
Pressure (altimeter): 29.79 inches Hg (1009.0 mb)
Winds: from the NW (310 degrees) at 3 MPH (3 knots; 1.5 m/s)
Visibility: 6 or more miles (10+ km)
Ceiling: 28000 feet AGL
Clouds: few clouds at 1500 feet AGL
broken clouds at 28000 feet AGL
Weather: no significant weather observed at this time

METAR text: WBSB 240930Z 34002KT 9999 FEW015 BKN280 31/25 Q1009 NOSIG
Conditions at: WBSB (BRUNEI INTL AIRP, MY) observed 0930 UTC 24 June 2019
Temperature: 31.0°C (88°F)
Dewpoint: 25.0°C (77°F) [RH = 71%]
Pressure (altimeter): 29.79 inches Hg (1009.0 mb)
Winds: from the NNW (340 degrees) at 2 MPH (2 knots; 1.0 m/s)
Visibility: 6 or more miles (10+ km)
Ceiling: 28000 feet AGL
Clouds: few clouds at 1500 feet AGL
broken clouds at 28000 feet AGL
Weather: no significant weather observed at this time

METAR text: WBSB 240900Z 27002KT 9999 FEW015 FEW016CB BKN280 31/25 Q1009 NOSIG
Conditions at: WBSB (BRUNEI INTL AIRP, MY) observed 0900 UTC 24 June 2019
Temperature: 31.0°C (88°F)
Dewpoint: 25.0°C (77°F) [RH = 71%]
Pressure (altimeter): 29.79 inches Hg (1009.0 mb)
Winds: from the W (270 degrees) at 2 MPH (2 knots; 1.0 m/s)
Visibility: 6 or more miles (10+ km)
Ceiling: 28000 feet AGL
Clouds: few clouds at 1500 feet AGL
few clouds at 1600 feet AGL
broken clouds at 28000 feet AGL
Weather: no significant weather observed at this time

METAR text: WBSB 240830Z 24002KT 9999 FEW015 FEW016CB BKN280 31/25 Q1009 NOSIG
Conditions at: WBSB (BRUNEI INTL AIRP, MY) observed 0830 UTC 24 June 2019
Temperature: 31.0°C (88°F)
Dewpoint: 25.0°C (77°F) [RH = 71%]
Pressure (altimeter): 29.79 inches Hg (1009.0 mb)
Winds: from the WSW (240 degrees) at 2 MPH (2 knots; 1.0 m/s)
Visibility: 6 or more miles (10+ km)
Ceiling: 28000 feet AGL
Clouds: few clouds at 1500 feet AGL
few clouds at 1600 feet AGL
broken clouds at 28000 feet AGL
Weather: no significant weather observed at this time

METAR text: WBSB 240800Z 29002KT 9999 FEW015 FEW016CB BKN280 31/25 Q1008 NOSIG
Conditions at: WBSB (BRUNEI INTL AIRP, MY) observed 0800 UTC 24 June 2019
Temperature: 31.0°C (88°F)
Dewpoint: 25.0°C (77°F) [RH = 71%]
Pressure (altimeter): 29.76 inches Hg (1008.0 mb)
Winds: from the WNW (290 degrees) at 2 MPH (2 knots; 1.0 m/s)
Visibility: 6 or more miles (10+ km)
Ceiling: 28000 feet AGL
Clouds: few clouds at 1500 feet AGL
few clouds at 1600 feet AGL
broken clouds at 28000 feet AGL
Weather: no significant weather observed at this time

METAR text: WBSB 240730Z 22003KT 9999 FEW015 FEW016CB BKN280 31/25 Q1008 NOSIG
Conditions at: WBSB (BRUNEI INTL AIRP, MY) observed 0730 UTC 24 June 2019
Temperature: 31.0°C (88°F)
Dewpoint: 25.0°C (77°F) [RH = 71%]
Pressure (altimeter): 29.76 inches Hg (1008.0 mb)
Winds: from the SW (220 degrees) at 3 MPH (3 knots; 1.5 m/s)
Visibility: 6 or more miles (10+ km)
Ceiling: 28000 feet AGL
Clouds: few clouds at 1500 feet AGL
few clouds at 1600 feet AGL
broken clouds at 28000 feet AGL
Weather: no significant weather observed at this time

METAR text: WBSB 240700Z 19004KT 9999 FEW015 FEW016CB BKN280 31/25 Q1009 NOSIG
Conditions at: WBSB (BRUNEI INTL AIRP, MY) observed 0700 UTC 24 June 2019
Temperature: 31.0°C (88°F)
Dewpoint: 25.0°C (77°F) [RH = 71%]
Pressure (altimeter): 29.79 inches Hg (1009.0 mb)
Winds: from the S (190 degrees) at 5 MPH (4 knots; 2.1 m/s)
Visibility: 6 or more miles (10+ km)
Ceiling: 28000 feet AGL
Clouds: few clouds at 1500 feet AGL
few clouds at 1600 feet AGL
broken clouds at 28000 feet AGL
Weather: no significant weather observed at this time

METAR text: WBSB 240630Z 16003KT 9999 FEW015 FEW016CB BKN280 31/24 Q1009 NOSIG
Conditions at: WBSB (BRUNEI INTL AIRP, MY) observed 0630 UTC 24 June 2019
Temperature: 31.0°C (88°F)
Dewpoint: 24.0°C (75°F) [RH = 66%]
Pressure (altimeter): 29.79 inches Hg (1009.0 mb)
Winds: from the SSE (160 degrees) at 3 MPH (3 knots; 1.5 m/s)
Visibility: 6 or more miles (10+ km)
Ceiling: 28000 feet AGL
Clouds: few clouds at 1500 feet AGL
few clouds at 1600 feet AGL
broken clouds at 28000 feet AGL
Weather: no significant weather observed at this time

METAR text: WBSB 240600Z 10004KT 9999 FEW015 FEW016CB BKN280 30/24 Q1009 NOSIG
Conditions at: WBSB (BRUNEI INTL AIRP, MY) observed 0600 UTC 24 June 2019
Temperature: 30.0°C (86°F)
Dewpoint: 24.0°C (75°F) [RH = 70%]
Pressure (altimeter): 29.79 inches Hg (1009.0 mb)
Winds: from the E (100 degrees) at 5 MPH (4 knots; 2.1 m/s)
Visibility: 6 or more miles (10+ km)
Ceiling: 28000 feet AGL
Clouds: few clouds at 1500 feet AGL
few clouds at 1600 feet AGL
broken clouds at 28000 feet AGL
Weather: no significant weather observed at this time

METAR text: WBSB 240530Z 15004KT 9999 FEW015 FEW016CB SCT140 BKN280 30/24 Q1010 NOSIG
Conditions at: WBSB (BRUNEI INTL AIRP, MY) observed 0530 UTC 24 June 2019
Temperature: 30.0°C (86°F)
Dewpoint: 24.0°C (75°F) [RH = 70%]
Pressure (altimeter): 29.82 inches Hg (1010.0 mb)
Winds: from the SSE (150 degrees) at 5 MPH (4 knots; 2.1 m/s)
Visibility: 6 or more miles (10+ km)
Ceiling: 28000 feet AGL
Clouds: few clouds at 1500 feet AGL
few clouds at 1600 feet AGL
scattered clouds at 14000 feet AGL
broken clouds at 28000 feet AGL
Weather: no significant weather observed at this time

METAR text: WBSB 240500Z 12003KT 9999 FEW015 SCT140 BKN280 30/23 Q1010 NOSIG
Conditions at: WBSB (BRUNEI INTL AIRP, MY) observed 0500 UTC 24 June 2019
Temperature: 30.0°C (86°F)
Dewpoint: 23.0°C (73°F) [RH = 66%]
Pressure (altimeter): 29.82 inches Hg (1010.0 mb)
Winds: from the ESE (120 degrees) at 3 MPH (3 knots; 1.5 m/s)
Visibility: 6 or more miles (10+ km)
Ceiling: 28000 feet AGL
Clouds: few clouds at 1500 feet AGL
scattered clouds at 14000 feet AGL
broken clouds at 28000 feet AGL
Weather: no significant weather observed at this time

METAR text: WBSB 240430Z 11003KT 9999 FEW015 SCT140 BKN280 30/23 Q1011 NOSIG
Conditions at: WBSB (BRUNEI INTL AIRP, MY) observed 0430 UTC 24 June 2019
Temperature: 30.0°C (86°F)
Dewpoint: 23.0°C (73°F) [RH = 66%]
Pressure (altimeter): 29.85 inches Hg (1011.0 mb)
Winds: from the ESE (110 degrees) at 3 MPH (3 knots; 1.5 m/s)
Visibility: 6 or more miles (10+ km)
Ceiling: 28000 feet AGL
Clouds: few clouds at 1500 feet AGL
scattered clouds at 14000 feet AGL
broken clouds at 28000 feet AGL
Weather: no significant weather observed at this time

METAR text: WBSB 240400Z 12002KT 9999 FEW015 SCT140 BKN280 30/22 Q1011 RESHRA NOSIG
Conditions at: WBSB (BRUNEI INTL AIRP, MY) observed 0400 UTC 24 June 2019
Temperature: 30.0°C (86°F)
Dewpoint: 22.0°C (72°F) [RH = 62%]
Pressure (altimeter): 29.85 inches Hg (1011.0 mb)
Winds: from the ESE (120 degrees) at 2 MPH (2 knots; 1.0 m/s)
Visibility: 6 or more miles (10+ km)
Ceiling: 28000 feet AGL
Clouds: few clouds at 1500 feet AGL
scattered clouds at 14000 feet AGL
broken clouds at 28000 feet AGL
Weather: no significant weather observed at this time

METAR text: WBSB 240330Z 10003KT 9999 FEW015 SCT140 BKN280 29/23 Q1011 RESHRA NOSIG
Conditions at: WBSB (BRUNEI INTL AIRP, MY) observed 0330 UTC 24 June 2019
Temperature: 29.0°C (84°F)
Dewpoint: 23.0°C (73°F) [RH = 70%]
Pressure (altimeter): 29.85 inches Hg (1011.0 mb)
Winds: from the E (100 degrees) at 3 MPH (3 knots; 1.5 m/s)
Visibility: 6 or more miles (10+ km)
Ceiling: 28000 feet AGL
Clouds: few clouds at 1500 feet AGL
scattered clouds at 14000 feet AGL
broken clouds at 28000 feet AGL
Weather: no significant weather observed at this time

METAR text: WBSB 240300Z 26002KT 9999 -SHRA FEW015 BKN140 BKN280 29/23 Q1012 NOSIG
Conditions at: WBSB (BRUNEI INTL AIRP, MY) observed 0300 UTC 24 June 2019
Temperature: 29.0°C (84°F)
Dewpoint: 23.0°C (73°F) [RH = 70%]
Pressure (altimeter): 29.88 inches Hg (1012.0 mb)
Winds: from the W (260 degrees) at 2 MPH (2 knots; 1.0 m/s)
Visibility: 6 or more miles (10+ km)
Ceiling: 14000 feet AGL
Clouds: few clouds at 1500 feet AGL
broken clouds at 14000 feet AGL
broken clouds at 28000 feet AGL
Weather: -SHRA  (light rain showers)

METAR text: WBSB 240230Z 18002KT 9999 -SHRA FEW015 BKN140 BKN280 28/24 Q1011 NOSIG
Conditions at: WBSB (BRUNEI INTL AIRP, MY) observed 0230 UTC 24 June 2019
Temperature: 28.0°C (82°F)
Dewpoint: 24.0°C (75°F) [RH = 79%]
Pressure (altimeter): 29.85 inches Hg (1011.0 mb)
Winds: from the S (180 degrees) at 2 MPH (2 knots; 1.0 m/s)
Visibility: 6 or more miles (10+ km)
Ceiling: 14000 feet AGL
Clouds: few clouds at 1500 feet AGL
broken clouds at 14000 feet AGL
broken clouds at 28000 feet AGL
Weather: -SHRA  (light rain showers)

METAR text: WBSB 240200Z 11002KT 9999 -SHRA FEW015 BKN140 BKN280 28/24 Q1011 NOSIG
Conditions at: WBSB (BRUNEI INTL AIRP, MY) observed 0200 UTC 24 June 2019
Temperature: 28.0°C (82°F)
Dewpoint: 24.0°C (75°F) [RH = 79%]
Pressure (altimeter): 29.85 inches Hg (1011.0 mb)
Winds: from the ESE (110 degrees) at 2 MPH (2 knots; 1.0 m/s)
Visibility: 6 or more miles (10+ km)
Ceiling: 14000 feet AGL
Clouds: few clouds at 1500 feet AGL
broken clouds at 14000 feet AGL
broken clouds at 28000 feet AGL
Weather: -SHRA  (light rain showers)

METAR text: WBSB 240130Z 16004KT 9999 -SHRA FEW015 BKN140 BKN280 27/24 Q1011 NOSIG
Conditions at: WBSB (BRUNEI INTL AIRP, MY) observed 0130 UTC 24 June 2019
Temperature: 27.0°C (81°F)
Dewpoint: 24.0°C (75°F) [RH = 84%]
Pressure (altimeter): 29.85 inches Hg (1011.0 mb)
Winds: from the SSE (160 degrees) at 5 MPH (4 knots; 2.1 m/s)
Visibility: 6 or more miles (10+ km)
Ceiling: 14000 feet AGL
Clouds: few clouds at 1500 feet AGL
broken clouds at 14000 feet AGL
broken clouds at 28000 feet AGL
Weather: -SHRA  (light rain showers)

METAR text: WBSB 240100Z 22002KT 9999 FEW015 SCT140 BKN280 27/24 Q1011 NOSIG
Conditions at: WBSB (BRUNEI INTL AIRP, MY) observed 0100 UTC 24 June 2019
Temperature: 27.0°C (81°F)
Dewpoint: 24.0°C (75°F) [RH = 84%]
Pressure (altimeter): 29.85 inches Hg (1011.0 mb)
Winds: from the SW (220 degrees) at 2 MPH (2 knots; 1.0 m/s)
Visibility: 6 or more miles (10+ km)
Ceiling: 28000 feet AGL
Clouds: few clouds at 1500 feet AGL
scattered clouds at 14000 feet AGL
broken clouds at 28000 feet AGL
Weather: no significant weather observed at this time

METAR text: WBSB 240030Z 29002KT 9999 FEW015 SCT140 BKN280 26/23 Q1011 NOSIG
Conditions at: WBSB (BRUNEI INTL AIRP, MY) observed 0030 UTC 24 June 2019
Temperature: 26.0°C (79°F)
Dewpoint: 23.0°C (73°F) [RH = 84%]
Pressure (altimeter): 29.85 inches Hg (1011.0 mb)
Winds: from the WNW (290 degrees) at 2 MPH (2 knots; 1.0 m/s)
Visibility: 6 or more miles (10+ km)
Ceiling: 28000 feet AGL
Clouds: few clouds at 1500 feet AGL
scattered clouds at 14000 feet AGL
broken clouds at 28000 feet AGL
Weather: no significant weather observed at this time

METAR text: WBSB 240000Z 28002KT 9999 FEW015 BKN140 25/23 Q1011 NOSIG
Conditions at: WBSB (BRUNEI INTL AIRP, MY) observed 0000 UTC 24 June 2019
Temperature: 25.0°C (77°F)
Dewpoint: 23.0°C (73°F) [RH = 89%]
Pressure (altimeter): 29.85 inches Hg (1011.0 mb)
Winds: from the W (280 degrees) at 2 MPH (2 knots; 1.0 m/s)
Visibility: 6 or more miles (10+ km)
Ceiling: 14000 feet AGL
Clouds: few clouds at 1500 feet AGL
broken clouds at 14000 feet AGL
Weather: no significant weather observed at this time

METAR text: WBSB 232330Z 23003KT 9999 FEW014 FEW015CB BKN140 25/23 Q1011 NOSIG
Conditions at: WBSB (BRUNEI INTL AIRP, MY) observed 2330 UTC 23 June 2019
Temperature: 25.0°C (77°F)
Dewpoint: 23.0°C (73°F) [RH = 89%]
Pressure (altimeter): 29.85 inches Hg (1011.0 mb)
Winds: from the SW (230 degrees) at 3 MPH (3 knots; 1.5 m/s)
Visibility: 6 or more miles (10+ km)
Ceiling: 14000 feet AGL
Clouds: few clouds at 1400 feet AGL
few clouds at 1500 feet AGL
broken clouds at 14000 feet AGL
Weather: no significant weather observed at this time

METAR text: WBSB 232300Z 21004KT 9999 FEW014 FEW015CB BKN140 24/23 Q1011 NOSIG
Conditions at: WBSB (BRUNEI INTL AIRP, MY) observed 2300 UTC 23 June 2019
Temperature: 24.0°C (75°F)
Dewpoint: 23.0°C (73°F) [RH = 94%]
Pressure (altimeter): 29.85 inches Hg (1011.0 mb)
Winds: from the SSW (210 degrees) at 5 MPH (4 knots; 2.1 m/s)
Visibility: 6 or more miles (10+ km)
Ceiling: 14000 feet AGL
Clouds: few clouds at 1400 feet AGL
few clouds at 1500 feet AGL
broken clouds at 14000 feet AGL
Weather: no significant weather observed at this time

METAR text: WBSB 232230Z 24003KT 9999 FEW014 FEW015CB BKN140 24/23 Q1010 NOSIG
Conditions at: WBSB (BRUNEI INTL AIRP, MY) observed 2230 UTC 23 June 2019
Temperature: 24.0°C (75°F)
Dewpoint: 23.0°C (73°F) [RH = 94%]
Pressure (altimeter): 29.82 inches Hg (1010.0 mb)
Winds: from the WSW (240 degrees) at 3 MPH (3 knots; 1.5 m/s)
Visibility: 6 or more miles (10+ km)
Ceiling: 14000 feet AGL
Clouds: few clouds at 1400 feet AGL
few clouds at 1500 feet AGL
broken clouds at 14000 feet AGL
Weather: no significant weather observed at this time

METAR text: WBSB 232200Z 22005KT 9999 FEW014 FEW015CB BKN140 25/23 Q1010 NOSIG
Conditions at: WBSB (BRUNEI INTL AIRP, MY) observed 2200 UTC 23 June 2019
Temperature: 25.0°C (77°F)
Dewpoint: 23.0°C (73°F) [RH = 89%]
Pressure (altimeter): 29.82 inches Hg (1010.0 mb)
Winds: from the SW (220 degrees) at 6 MPH (5 knots; 2.6 m/s)
Visibility: 6 or more miles (10+ km)
Ceiling: 14000 feet AGL
Clouds: few clouds at 1400 feet AGL
few clouds at 1500 feet AGL
broken clouds at 14000 feet AGL
Weather: no significant weather observed at this time

METAR text: WBSB 232130Z 19004KT 9999 FEW014 FEW015CB BKN140 25/23 Q1010 NOSIG
Conditions at: WBSB (BRUNEI INTL AIRP, MY) observed 2130 UTC 23 June 2019
Temperature: 25.0°C (77°F)
Dewpoint: 23.0°C (73°F) [RH = 89%]
Pressure (altimeter): 29.82 inches Hg (1010.0 mb)
Winds: from the S (190 degrees) at 5 MPH (4 knots; 2.1 m/s)
Visibility: 6 or more miles (10+ km)
Ceiling: 14000 feet AGL
Clouds: few clouds at 1400 feet AGL
few clouds at 1500 feet AGL
broken clouds at 14000 feet AGL
Weather: no significant weather observed at this time

METAR text: WBSB 232100Z 17003KT 9999 FEW014 FEW015CB BKN140 25/23 Q1009 NOSIG
Conditions at: WBSB (BRUNEI INTL AIRP, MY) observed 2100 UTC 23 June 2019
Temperature: 25.0°C (77°F)
Dewpoint: 23.0°C (73°F) [RH = 89%]
Pressure (altimeter): 29.79 inches Hg (1009.0 mb)
Winds: from the S (170 degrees) at 3 MPH (3 knots; 1.5 m/s)
Visibility: 6 or more miles (10+ km)
Ceiling: 14000 feet AGL
Clouds: few clouds at 1400 feet AGL
few clouds at 1500 feet AGL
broken clouds at 14000 feet AGL
Weather: no significant weather observed at this time

METAR text: WBSB 232030Z 16002KT 9999 FEW014 FEW015CB BKN140 25/23 Q1009 NOSIG
Conditions at: WBSB (BRUNEI INTL AIRP, MY) observed 2030 UTC 23 June 2019
Temperature: 25.0°C (77°F)
Dewpoint: 23.0°C (73°F) [RH = 89%]
Pressure (altimeter): 29.79 inches Hg (1009.0 mb)
Winds: from the SSE (160 degrees) at 2 MPH (2 knots; 1.0 m/s)
Visibility: 6 or more miles (10+ km)
Ceiling: 14000 feet AGL
Clouds: few clouds at 1400 feet AGL
few clouds at 1500 feet AGL
broken clouds at 14000 feet AGL
Weather: no significant weather observed at this time

METAR text: WBSB 232000Z 17003KT 9999 FEW014 FEW015CB BKN140 25/22 Q1010 NOSIG
Conditions at: WBSB (BRUNEI INTL AIRP, MY) observed 2000 UTC 23 June 2019
Temperature: 25.0°C (77°F)
Dewpoint: 22.0°C (72°F) [RH = 83%]
Pressure (altimeter): 29.82 inches Hg (1010.0 mb)
Winds: from the S (170 degrees) at 3 MPH (3 knots; 1.5 m/s)
Visibility: 6 or more miles (10+ km)
Ceiling: 14000 feet AGL
Clouds: few clouds at 1400 feet AGL
few clouds at 1500 feet AGL
broken clouds at 14000 feet AGL
Weather: no significant weather observed at this time

METAR text: WBSB 231930Z 12003KT 9999 FEW014 FEW015CB BKN140 25/23 Q1009 RERA NOSIG
Conditions at: WBSB (BRUNEI INTL AIRP, MY) observed 1930 UTC 23 June 2019
Temperature: 25.0°C (77°F)
Dewpoint: 23.0°C (73°F) [RH = 89%]
Pressure (altimeter): 29.79 inches Hg (1009.0 mb)
Winds: from the ESE (120 degrees) at 3 MPH (3 knots; 1.5 m/s)
Visibility: 6 or more miles (10+ km)
Ceiling: 14000 feet AGL
Clouds: few clouds at 1400 feet AGL
few clouds at 1500 feet AGL
broken clouds at 14000 feet AGL
Weather: no significant weather observed at this time

METAR text: WBSB 231900Z 12002KT 9999 FEW014 FEW015CB BKN140 25/25 Q1010 NOSIG
Conditions at: WBSB (BRUNEI INTL AIRP, MY) observed 1900 UTC 23 June 2019
Temperature: 25.0°C (77°F)
Dewpoint: 25.0°C (77°F) [RH = 100%]
Pressure (altimeter): 29.82 inches Hg (1010.0 mb)
Winds: from the ESE (120 degrees) at 2 MPH (2 knots; 1.0 m/s)
Visibility: 6 or more miles (10+ km)
Ceiling: 14000 feet AGL
Clouds: few clouds at 1400 feet AGL
few clouds at 1500 feet AGL
broken clouds at 14000 feet AGL
Weather: no significant weather observed at this time

METAR text: WBSB 231830Z 18008KT 9999 -RA FEW003 FEW015CB BKN150 25/23 Q1010 NOSIG
Conditions at: WBSB (BRUNEI INTL AIRP, MY) observed 1830 UTC 23 June 2019
Temperature: 25.0°C (77°F)
Dewpoint: 23.0°C (73°F) [RH = 89%]
Pressure (altimeter): 29.82 inches Hg (1010.0 mb)
Winds: from the S (180 degrees) at 9 MPH (8 knots; 4.1 m/s)
Visibility: 6 or more miles (10+ km)
Ceiling: 15000 feet AGL
Clouds: few clouds at 300 feet AGL
few clouds at 1500 feet AGL
broken clouds at 15000 feet AGL
Weather: -RA  (light rain)

METAR text: WBSB 231800Z 16007KT 9999 -RA FEW003 FEW015CB BKN150 25/24 Q1010 NOSIG
Conditions at: WBSB (BRUNEI INTL AIRP, MY) observed 1800 UTC 23 June 2019
Temperature: 25.0°C (77°F)
Dewpoint: 24.0°C (75°F) [RH = 94%]
Pressure (altimeter): 29.82 inches Hg (1010.0 mb)
Winds: from the SSE (160 degrees) at 8 MPH (7 knots; 3.6 m/s)
Visibility: 6 or more miles (10+ km)
Ceiling: 15000 feet AGL
Clouds: few clouds at 300 feet AGL
few clouds at 1500 feet AGL
broken clouds at 15000 feet AGL
Weather: -RA  (light rain)

METAR text: WBSB 231730Z 16005KT 9999 -RA FEW003 FEW015CB BKN150 25/24 Q1011 NOSIG
Conditions at: WBSB (BRUNEI INTL AIRP, MY) observed 1730 UTC 23 June 2019
Temperature: 25.0°C (77°F)
Dewpoint: 24.0°C (75°F) [RH = 94%]
Pressure (altimeter): 29.85 inches Hg (1011.0 mb)
Winds: from the SSE (160 degrees) at 6 MPH (5 knots; 2.6 m/s)
Visibility: 6 or more miles (10+ km)
Ceiling: 15000 feet AGL
Clouds: few clouds at 300 feet AGL
few clouds at 1500 feet AGL
broken clouds at 15000 feet AGL
Weather: -RA  (light rain)

METAR text: WBSB 231700Z 14006KT 9999 -RA FEW003 SCT014 BKN150 25/24 Q1011 NOSIG
Conditions at: WBSB (BRUNEI INTL AIRP, MY) observed 1700 UTC 23 June 2019
Temperature: 25.0°C (77°F)
Dewpoint: 24.0°C (75°F) [RH = 94%]
Pressure (altimeter): 29.85 inches Hg (1011.0 mb)
Winds: from the SE (140 degrees) at 7 MPH (6 knots; 3.1 m/s)
Visibility: 6 or more miles (10+ km)
Ceiling: 15000 feet AGL
Clouds: few clouds at 300 feet AGL
scattered clouds at 1400 feet AGL
broken clouds at 15000 feet AGL
Weather: -RA  (light rain)

METAR text: WBSB 231630Z 16004KT 9999 -RA FEW003 SCT014 BKN150 25/24 Q1011 NOSIG
Conditions at: WBSB (BRUNEI INTL AIRP, MY) observed 1630 UTC 23 June 2019
Temperature: 25.0°C (77°F)
Dewpoint: 24.0°C (75°F) [RH = 94%]
Pressure (altimeter): 29.85 inches Hg (1011.0 mb)
Winds: from the SSE (160 degrees) at 5 MPH (4 knots; 2.1 m/s)
Visibility: 6 or more miles (10+ km)
Ceiling: 15000 feet AGL
Clouds: few clouds at 300 feet AGL
scattered clouds at 1400 feet AGL
broken clouds at 15000 feet AGL
Weather: -RA  (light rain)

METAR text: WBSB 231600Z 16002KT 9999 -RA FEW003 BKN150 25/24 Q1012 NOSIG
Conditions at: WBSB (BRUNEI INTL AIRP, MY) observed 1600 UTC 23 June 2019
Temperature: 25.0°C (77°F)
Dewpoint: 24.0°C (75°F) [RH = 94%]
Pressure (altimeter): 29.88 inches Hg (1012.0 mb)
Winds: from the SSE (160 degrees) at 2 MPH (2 knots; 1.0 m/s)
Visibility: 6 or more miles (10+ km)
Ceiling: 15000 feet AGL
Clouds: few clouds at 300 feet AGL
broken clouds at 15000 feet AGL
Weather: -RA  (light rain)

METAR text: WBSB 231530Z 16004KT 9999 -RA FEW003 BKN150 25/24 Q1012 NOSIG
Conditions at: WBSB (BRUNEI INTL AIRP, MY) observed 1530 UTC 23 June 2019
Temperature: 25.0°C (77°F)
Dewpoint: 24.0°C (75°F) [RH = 94%]
Pressure (altimeter): 29.88 inches Hg (1012.0 mb)
Winds: from the SSE (160 degrees) at 5 MPH (4 knots; 2.1 m/s)
Visibility: 6 or more miles (10+ km)
Ceiling: 15000 feet AGL
Clouds: few clouds at 300 feet AGL
broken clouds at 15000 feet AGL
Weather: -RA  (light rain)

METAR text: WBSB 231500Z 14003KT 9000 -RA FEW003 BKN150 25/24 Q1011 TEMPO 8000 SHRA
Conditions at: WBSB (BRUNEI INTL AIRP, MY) observed 1500 UTC 23 June 2019
Temperature: 25.0°C (77°F)
Dewpoint: 24.0°C (75°F) [RH = 94%]
Pressure (altimeter): 29.85 inches Hg (1011.0 mb)
Winds: from the SE (140 degrees) at 3 MPH (3 knots; 1.5 m/s)
Visibility: 6 miles ( 9 km)
Ceiling: 15000 feet AGL
Clouds: few clouds at 300 feet AGL
broken clouds at 15000 feet AGL
Weather: -RA  (light rain)

METAR text: WBSB 231430Z 14003KT 9000 -RA FEW003 BKN150 25/24 Q1011 TEMPO 8000 SHRA
Conditions at: WBSB (BRUNEI INTL AIRP, MY) observed 1430 UTC 23 June 2019
Temperature: 25.0°C (77°F)
Dewpoint: 24.0°C (75°F) [RH = 94%]
Pressure (altimeter): 29.85 inches Hg (1011.0 mb)
Winds: from the SE (140 degrees) at 3 MPH (3 knots; 1.5 m/s)
Visibility: 6 miles ( 9 km)
Ceiling: 15000 feet AGL
Clouds: few clouds at 300 feet AGL
broken clouds at 15000 feet AGL
Weather: -RA  (light rain)

METAR text: WBSB 231400Z 13003KT 8000 -RA FEW003 BKN150 25/24 Q1011 TEMPO 24014KT 4000 SHRA TSRA
Conditions at: WBSB (BRUNEI INTL AIRP, MY) observed 1400 UTC 23 June 2019
Temperature: 25.0°C (77°F)
Dewpoint: 24.0°C (75°F) [RH = 94%]
Pressure (altimeter): 29.85 inches Hg (1011.0 mb)
Winds: from the SE (130 degrees) at 3 MPH (3 knots; 1.5 m/s)
Visibility: 5 miles ( 8 km)
Ceiling: 15000 feet AGL
Clouds: few clouds at 300 feet AGL
broken clouds at 15000 feet AGL
Weather: -RA  (light rain)

METAR text: WBSB 231330Z 15005KT 8000 -RA FEW003 FEW014CB BKN150 25/24 Q1011 TEMPO 24014KT 4000 SHRA TSRA
Conditions at: WBSB (BRUNEI INTL AIRP, MY) observed 1330 UTC 23 June 2019
Temperature: 25.0°C (77°F)
Dewpoint: 24.0°C (75°F) [RH = 94%]
Pressure (altimeter): 29.85 inches Hg (1011.0 mb)
Winds: from the SSE (150 degrees) at 6 MPH (5 knots; 2.6 m/s)
Visibility: 5 miles ( 8 km)
Ceiling: 15000 feet AGL
Clouds: few clouds at 300 feet AGL
few clouds at 1400 feet AGL
broken clouds at 15000 feet AGL
Weather: -RA  (light rain)

METAR text: WBSB 231300Z 15005KT 6000 -RA FEW003 SCT012 FEW014CB BKN150 25/25 Q1010 TEMPO 24014KT 4000 SHRA TSRA
Conditions at: WBSB (BRUNEI INTL AIRP, MY) observed 1300 UTC 23 June 2019
Temperature: 25.0°C (77°F)
Dewpoint: 25.0°C (77°F) [RH = 100%]
Pressure (altimeter): 29.82 inches Hg (1010.0 mb)
Winds: from the SSE (150 degrees) at 6 MPH (5 knots; 2.6 m/s)
Visibility: 4 miles ( 6 km)
Ceiling: 15000 feet AGL
Clouds: few clouds at 300 feet AGL
scattered clouds at 1200 feet AGL
few clouds at 1400 feet AGL
broken clouds at 15000 feet AGL
Weather: -RA  (light rain)

METAR text: WBSB 231230Z 11001KT 7000 -RA FEW005 FEW014CB BKN150 25/25 Q1009 TEMPO 24014KT 4000 SHRA TSRA
Conditions at: WBSB (BRUNEI INTL AIRP, MY) observed 1230 UTC 23 June 2019
Temperature: 25.0°C (77°F)
Dewpoint: 25.0°C (77°F) [RH = 100%]
Pressure (altimeter): 29.79 inches Hg (1009.0 mb)
Winds: from the ESE (110 degrees) at 1 MPH (1 knots; 0.5 m/s)
Visibility: 4 miles ( 7 km)
Ceiling: 15000 feet AGL
Clouds: few clouds at 500 feet AGL
few clouds at 1400 feet AGL
broken clouds at 15000 feet AGL
Weather: -RA  (light rain)

METAR text: WBSB 231200Z 09002KT 7000 -RA FEW005 FEW014CB BKN150 25/24 Q1009 NOSIG
Conditions at: WBSB (BRUNEI INTL AIRP, MY) observed 1200 UTC 23 June 2019
Temperature: 25.0°C (77°F)
Dewpoint: 24.0°C (75°F) [RH = 94%]
Pressure (altimeter): 29.79 inches Hg (1009.0 mb)
Winds: from the E (90 degrees) at 2 MPH (2 knots; 1.0 m/s)
Visibility: 4 miles ( 7 km)
Ceiling: 15000 feet AGL
Clouds: few clouds at 500 feet AGL
few clouds at 1400 feet AGL
broken clouds at 15000 feet AGL
Weather: -RA  (light rain)

METAR text: WBSB 231130Z 36002KT 9999 -RA FEW005 FEW014CB BKN150 25/24 Q1008 NOSIG
Conditions at: WBSB (BRUNEI INTL AIRP, MY) observed 1130 UTC 23 June 2019
Temperature: 25.0°C (77°F)
Dewpoint: 24.0°C (75°F) [RH = 94%]
Pressure (altimeter): 29.76 inches Hg (1008.0 mb)
Winds: from the N (360 degrees) at 2 MPH (2 knots; 1.0 m/s)
Visibility: 6 or more miles (10+ km)
Ceiling: 15000 feet AGL
Clouds: few clouds at 500 feet AGL
few clouds at 1400 feet AGL
broken clouds at 15000 feet AGL
Weather: -RA  (light rain)

METAR text: WBSB 231100Z 21002KT 8000 -RA FEW005 FEW014CB BKN150 25/24 Q1008 NOSIG
Conditions at: WBSB (BRUNEI INTL AIRP, MY) observed 1100 UTC 23 June 2019
Temperature: 25.0°C (77°F)
Dewpoint: 24.0°C (75°F) [RH = 94%]
Pressure (altimeter): 29.76 inches Hg (1008.0 mb)
Winds: from the SSW (210 degrees) at 2 MPH (2 knots; 1.0 m/s)
Visibility: 5 miles ( 8 km)
Ceiling: 15000 feet AGL
Clouds: few clouds at 500 feet AGL
few clouds at 1400 feet AGL
broken clouds at 15000 feet AGL
Weather: -RA  (light rain)

METAR text: WBSB 231030Z 15004KT 8000 -RA FEW005 FEW015CB BKN150 25/24 Q1008 TEMPO 21012G25KT 2000 SHRA TSRA
Conditions at: WBSB (BRUNEI INTL AIRP, MY) observed 1030 UTC 23 June 2019
Temperature: 25.0°C (77°F)
Dewpoint: 24.0°C (75°F) [RH = 94%]
Pressure (altimeter): 29.76 inches Hg (1008.0 mb)
Winds: from the SSE (150 degrees) at 5 MPH (4 knots; 2.1 m/s)
Visibility: 5 miles ( 8 km)
Ceiling: 15000 feet AGL
Clouds: few clouds at 500 feet AGL
few clouds at 1500 feet AGL
broken clouds at 15000 feet AGL
Weather: -RA  (light rain)

METAR text: WBSB 231000Z 20010KT 2000 SHRA FEW005 SCT012 FEW015CB BKN150 26/24 Q1008 TEMPO 21012G25KT 2000 SHRA TSRA
Conditions at: WBSB (BRUNEI INTL AIRP, MY) observed 1000 UTC 23 June 2019
Temperature: 26.0°C (79°F)
Dewpoint: 24.0°C (75°F) [RH = 89%]
Pressure (altimeter): 29.76 inches Hg (1008.0 mb)
Winds: from the SSW (200 degrees) at 12 MPH (10 knots; 5.1 m/s)
Visibility: 1.24 miles (2.00 km)
Ceiling: 15000 feet AGL
Clouds: few clouds at 500 feet AGL
scattered clouds at 1200 feet AGL
few clouds at 1500 feet AGL
broken clouds at 15000 feet AGL
Weather: SHRA  (rain showers)

METAR text: WBSB 230930Z 16005KT 2000 -SHRA SCT014 FEW015CB BKN140 27/25 Q1008 TEMPO 21012G25KT 2000 SHRA TSRA
Conditions at: WBSB (BRUNEI INTL AIRP, MY) observed 0930 UTC 23 June 2019
Temperature: 27.0°C (81°F)
Dewpoint: 25.0°C (77°F) [RH = 89%]
Pressure (altimeter): 29.76 inches Hg (1008.0 mb)
Winds: from the SSE (160 degrees) at 6 MPH (5 knots; 2.6 m/s)
Visibility: 1.24 miles (2.00 km)
Ceiling: 14000 feet AGL
Clouds: scattered clouds at 1400 feet AGL
few clouds at 1500 feet AGL
broken clouds at 14000 feet AGL
Weather: -SHRA  (light rain showers)

METAR text: WBSB 230900Z 31003KT 6000 -SHRA SCT014 FEW015CB BKN140 27/24 Q1007 WS ALL RWY TEMPO 21014KT 6000 SHRA TSRA
Conditions at: WBSB (BRUNEI INTL AIRP, MY) observed 0900 UTC 23 June 2019
Temperature: 27.0°C (81°F)
Dewpoint: 24.0°C (75°F) [RH = 84%]
Pressure (altimeter): 29.73 inches Hg (1007.0 mb)
Winds: from the NW (310 degrees) at 3 MPH (3 knots; 1.5 m/s)
Visibility: 4 miles ( 6 km)
Ceiling: 14000 feet AGL
Clouds: scattered clouds at 1400 feet AGL
few clouds at 1500 feet AGL
broken clouds at 14000 feet AGL
Weather: -SHRA  (light rain showers)

METAR text: WBSB 230830Z 29009KT 3000 -SHRA SCT014 FEW015CB BKN140 29/26 Q1007 WS ALL RWY TEMPO 21014KT 6000 SHRA TSRA
Conditions at: WBSB (BRUNEI INTL AIRP, MY) observed 0830 UTC 23 June 2019
Temperature: 29.0°C (84°F)
Dewpoint: 26.0°C (79°F) [RH = 84%]
Pressure (altimeter): 29.73 inches Hg (1007.0 mb)
Winds: from the WNW (290 degrees) at 10 MPH (9 knots; 4.6 m/s)
Visibility: 1.86 miles (2.99 km)
Ceiling: 14000 feet AGL
Clouds: scattered clouds at 1400 feet AGL
few clouds at 1500 feet AGL
broken clouds at 14000 feet AGL
Weather: -SHRA  (light rain showers)

METAR text: WBSB 230800Z 27007KT 9999 SCT015 FEW016CB BKN140 31/26 Q1007 TEMPO 21014KT 6000 SHRA TSRA
Conditions at: WBSB (BRUNEI INTL AIRP, MY) observed 0800 UTC 23 June 2019
Temperature: 31.0°C (88°F)
Dewpoint: 26.0°C (79°F) [RH = 75%]
Pressure (altimeter): 29.73 inches Hg (1007.0 mb)
Winds: from the W (270 degrees) at 8 MPH (7 knots; 3.6 m/s)
Visibility: 6 or more miles (10+ km)
Ceiling: 14000 feet AGL
Clouds: scattered clouds at 1500 feet AGL
few clouds at 1600 feet AGL
broken clouds at 14000 feet AGL
Weather: no significant weather observed at this time

METAR text: WBSB 230730Z 24006KT 9999 SCT016 BKN140 31/26 Q1007 NOSIG
Conditions at: WBSB (BRUNEI INTL AIRP, MY) observed 0730 UTC 23 June 2019
Temperature: 31.0°C (88°F)
Dewpoint: 26.0°C (79°F) [RH = 75%]
Pressure (altimeter): 29.73 inches Hg (1007.0 mb)
Winds: from the WSW (240 degrees) at 7 MPH (6 knots; 3.1 m/s)
Visibility: 6 or more miles (10+ km)
Ceiling: 14000 feet AGL
Clouds: scattered clouds at 1600 feet AGL
broken clouds at 14000 feet AGL
Weather: no significant weather observed at this time

METAR text: WBSB 230700Z 29006KT 9999 SCT016 BKN140 31/26 Q1007 NOSIG
Conditions at: WBSB (BRUNEI INTL AIRP, MY) observed 0700 UTC 23 June 2019
Temperature: 31.0°C (88°F)
Dewpoint: 26.0°C (79°F) [RH = 75%]
Pressure (altimeter): 29.73 inches Hg (1007.0 mb)
Winds: from the WNW (290 degrees) at 7 MPH (6 knots; 3.1 m/s)
Visibility: 6 or more miles (10+ km)
Ceiling: 14000 feet AGL
Clouds: scattered clouds at 1600 feet AGL
broken clouds at 14000 feet AGL
Weather: no significant weather observed at this time

METAR text: WBSB 230630Z 24006KT 9999 SCT016 BKN140 31/25 Q1007 NOSIG
Conditions at: WBSB (BRUNEI INTL AIRP, MY) observed 0630 UTC 23 June 2019
Temperature: 31.0°C (88°F)
Dewpoint: 25.0°C (77°F) [RH = 71%]
Pressure (altimeter): 29.73 inches Hg (1007.0 mb)
Winds: from the WSW (240 degrees) at 7 MPH (6 knots; 3.1 m/s)
Visibility: 6 or more miles (10+ km)
Ceiling: 14000 feet AGL
Clouds: scattered clouds at 1600 feet AGL
broken clouds at 14000 feet AGL
Weather: no significant weather observed at this time

METAR text: WBSB 230600Z 23004KT 9999 SCT016 BKN140 31/25 Q1007 NOSIG
Conditions at: WBSB (BRUNEI INTL AIRP, MY) observed 0600 UTC 23 June 2019
Temperature: 31.0°C (88°F)
Dewpoint: 25.0°C (77°F) [RH = 71%]
Pressure (altimeter): 29.73 inches Hg (1007.0 mb)
Winds: from the SW (230 degrees) at 5 MPH (4 knots; 2.1 m/s)
Visibility: 6 or more miles (10+ km)
Ceiling: 14000 feet AGL
Clouds: scattered clouds at 1600 feet AGL
broken clouds at 14000 feet AGL
Weather: no significant weather observed at this time

Forecast for: WBSB (BRUNEI INTL AIRP, MY)
Text: TAF WBSB 241700Z 2418/2600 21002KT 9999 FEW014 BKN140
Forecast period: 1800 UTC 24 June 2019 to 0300 UTC 25 June 2019
Forecast type: FROM: standard forecast or significant change
Winds: from the SSW (210 degrees) at 2 MPH (2 knots; 1.0 m/s)
Visibility: 6 or more miles 10+ km)
Ceiling: 14000 feet AGL
Clouds: few clouds at 1400 feet AGL
broken clouds at 14000 feet AGL
Weather: no significant weather forecast for this period
Text: BECMG 2503/2505 27012KT FEW016 FEW017CB
Forecast period: 0300 UTC 25 June 2019 to 0000 UTC 26 June 2019
Forecast type: BECOMING: Conditions expected to become as follows by 0500 UTC 25 June 2019
Winds: from the W (270 degrees) at 14 MPH (12 knots; 6.2 m/s)
Visibility: 6 or more miles 10+ km)
Ceiling: at least 12,000 feet AGL
Clouds: few clouds at 1600 feet AGL
few clouds at 1700 feet AGL
Weather: no significant weather forecast for this period